Moisie, Canada
Current Conditions -  °F | °C
As of 10:00 AM on Friday 19 Dec 2014 (Local Time) from CYZV Reporting Station
Few Clouds Few Clouds  
Wind Chill: 16°   Ceiling: Unl
Heat Index: 25°   Visibility: 30mi
Dew Point:   Wind: 8mph
Humidity: 36%   Direction: 300°WNW
Pressure: 29.82"   Gusts: NA
Location:  50.19°N, 66.1°W
Report Text: CYZV 191500Z 30007KT 260V350 30SM FEW110 FEW220 M04/M17 A2982 RMK AC1CI1 AC TR SLP103
Loading
Personal Weather Stations






























Interactive Weather Map New forecast layout! Learn more

10-Day Weather Forecast

Advertisements
Track Severe Weather on mobile